sensor_id;sensor_type;location;lat;lon;timestamp;P1;durP1;ratioP1;P2;durP2;ratioP2
4278;SDS011;2153;47.744;10.580;2022-08-27T00:01:07;14.80;;;3.67;;
4278;SDS011;2153;47.744;10.580;2022-08-27T00:03:34;15.00;;;3.73;;
4278;SDS011;2153;47.744;10.580;2022-08-27T00:06:01;15.20;;;3.57;;
4278;SDS011;2153;47.744;10.580;2022-08-27T00:08:28;15.30;;;3.47;;
4278;SDS011;2153;47.744;10.580;2022-08-27T00:10:56;16.17;;;3.40;;
4278;SDS011;2153;47.744;10.580;2022-08-27T00:13:23;16.87;;;3.90;;
4278;SDS011;2153;47.744;10.580;2022-08-27T00:15:49;14.27;;;3.27;;
4278;SDS011;2153;47.744;10.580;2022-08-27T00:18:16;15.80;;;3.90;;
4278;SDS011;2153;47.744;10.580;2022-08-27T00:20:44;16.07;;;3.50;;
4278;SDS011;2153;47.744;10.580;2022-08-27T00:23:11;13.40;;;3.27;;
4278;SDS011;2153;47.744;10.580;2022-08-27T00:25:37;14.07;;;3.47;;
4278;SDS011;2153;47.744;10.580;2022-08-27T00:28:05;18.03;;;3.67;;
4278;SDS011;2153;47.744;10.580;2022-08-27T00:30:32;14.27;;;3.60;;
4278;SDS011;2153;47.744;10.580;2022-08-27T00:32:59;14.80;;;3.47;;
4278;SDS011;2153;47.744;10.580;2022-08-27T00:35:27;16.07;;;3.67;;
4278;SDS011;2153;47.744;10.580;2022-08-27T00:37:54;15.30;;;3.50;;
4278;SDS011;2153;47.744;10.580;2022-08-27T00:40:20;14.10;;;3.83;;
4278;SDS011;2153;47.744;10.580;2022-08-27T00:42:48;15.27;;;4.07;;
4278;SDS011;2153;47.744;10.580;2022-08-27T00:45:18;17.53;;;3.60;;
4278;SDS011;2153;47.744;10.580;2022-08-27T00:47:47;13.87;;;3.67;;
4278;SDS011;2153;47.744;10.580;2022-08-27T00:50:31;14.13;;;3.40;;
4278;SDS011;2153;47.744;10.580;2022-08-27T00:53:00;17.20;;;3.77;;
4278;SDS011;2153;47.744;10.580;2022-08-27T00:55:29;20.53;;;4.47;;
4278;SDS011;2153;47.744;10.580;2022-08-27T00:58:02;13.90;;;3.40;;
4278;SDS011;2153;47.744;10.580;2022-08-27T01:00:34;15.53;;;3.73;;
4278;SDS011;2153;47.744;10.580;2022-08-27T01:03:02;16.73;;;4.00;;
4278;SDS011;2153;47.744;10.580;2022-08-27T01:05:28;17.00;;;3.70;;
4278;SDS011;2153;47.744;10.580;2022-08-27T01:07:56;16.07;;;3.60;;
4278;SDS011;2153;47.744;10.580;2022-08-27T01:10:29;15.40;;;3.77;;
4278;SDS011;2153;47.744;10.580;2022-08-27T01:12:56;17.43;;;4.00;;
4278;SDS011;2153;47.744;10.580;2022-08-27T01:15:24;14.30;;;3.57;;
4278;SDS011;2153;47.744;10.580;2022-08-27T01:17:54;14.30;;;3.80;;
4278;SDS011;2153;47.744;10.580;2022-08-27T01:20:22;15.87;;;4.10;;
4278;SDS011;2153;47.744;10.580;2022-08-27T01:22:54;14.40;;;3.70;;
4278;SDS011;2153;47.744;10.580;2022-08-27T01:25:30;15.90;;;4.40;;
4278;SDS011;2153;47.744;10.580;2022-08-27T01:27:58;15.23;;;4.60;;
4278;SDS011;2153;47.744;10.580;2022-08-27T01:30:27;18.17;;;4.27;;
4278;SDS011;2153;47.744;10.580;2022-08-27T01:32:55;15.03;;;4.00;;
4278;SDS011;2153;47.744;10.580;2022-08-27T01:35:22;16.93;;;4.47;;
4278;SDS011;2153;47.744;10.580;2022-08-27T01:37:51;14.80;;;4.07;;
4278;SDS011;2153;47.744;10.580;2022-08-27T01:40:20;16.33;;;3.83;;
4278;SDS011;2153;47.744;10.580;2022-08-27T01:42:49;13.87;;;3.40;;
4278;SDS011;2153;47.744;10.580;2022-08-27T01:45:18;14.77;;;3.40;;
4278;SDS011;2153;47.744;10.580;2022-08-27T01:47:45;14.90;;;4.13;;
4278;SDS011;2153;47.744;10.580;2022-08-27T01:50:13;16.73;;;4.50;;
4278;SDS011;2153;47.744;10.580;2022-08-27T01:52:42;15.30;;;4.30;;
4278;SDS011;2153;47.744;10.580;2022-08-27T01:55:10;16.07;;;4.60;;
4278;SDS011;2153;47.744;10.580;2022-08-27T01:57:40;15.63;;;4.63;;
4278;SDS011;2153;47.744;10.580;2022-08-27T02:00:11;15.60;;;4.13;;
4278;SDS011;2153;47.744;10.580;2022-08-27T02:02:41;16.70;;;4.70;;
4278;SDS011;2153;47.744;10.580;2022-08-27T02:05:08;18.87;;;4.87;;
4278;SDS011;2153;47.744;10.580;2022-08-27T02:07:35;14.60;;;4.40;;
4278;SDS011;2153;47.744;10.580;2022-08-27T02:10:02;17.13;;;4.80;;
4278;SDS011;2153;47.744;10.580;2022-08-27T02:12:30;14.57;;;4.73;;
4278;SDS011;2153;47.744;10.580;2022-08-27T02:14:56;15.90;;;4.70;;
4278;SDS011;2153;47.744;10.580;2022-08-27T02:17:24;15.50;;;4.93;;
4278;SDS011;2153;47.744;10.580;2022-08-27T02:19:51;14.23;;;4.23;;
4278;SDS011;2153;47.744;10.580;2022-08-27T02:22:18;16.37;;;4.80;;
4278;SDS011;2153;47.744;10.580;2022-08-27T02:24:45;15.70;;;5.10;;
4278;SDS011;2153;47.744;10.580;2022-08-27T02:27:12;16.17;;;5.40;;
4278;SDS011;2153;47.744;10.580;2022-08-27T02:29:39;16.40;;;5.80;;
4278;SDS011;2153;47.744;10.580;2022-08-27T02:32:05;17.80;;;5.80;;
4278;SDS011;2153;47.744;10.580;2022-08-27T02:34:34;19.17;;;5.97;;
4278;SDS011;2153;47.744;10.580;2022-08-27T02:37:00;17.07;;;5.87;;
4278;SDS011;2153;47.744;10.580;2022-08-27T02:39:27;16.77;;;4.90;;
4278;SDS011;2153;47.744;10.580;2022-08-27T02:41:54;15.90;;;4.80;;
4278;SDS011;2153;47.744;10.580;2022-08-27T02:44:20;16.40;;;5.03;;
4278;SDS011;2153;47.744;10.580;2022-08-27T02:46:47;15.70;;;5.07;;
4278;SDS011;2153;47.744;10.580;2022-08-27T02:49:14;18.47;;;5.70;;
4278;SDS011;2153;47.744;10.580;2022-08-27T02:51:43;19.10;;;5.40;;
4278;SDS011;2153;47.744;10.580;2022-08-27T02:54:10;15.60;;;5.10;;
4278;SDS011;2153;47.744;10.580;2022-08-27T02:56:37;16.13;;;5.30;;
4278;SDS011;2153;47.744;10.580;2022-08-27T02:59:03;15.60;;;4.83;;
4278;SDS011;2153;47.744;10.580;2022-08-27T03:01:30;24.73;;;5.80;;
4278;SDS011;2153;47.744;10.580;2022-08-27T03:03:57;16.57;;;5.23;;
4278;SDS011;2153;47.744;10.580;2022-08-27T03:06:24;16.83;;;5.63;;
4278;SDS011;2153;47.744;10.580;2022-08-27T03:08:52;15.83;;;5.40;;
4278;SDS011;2153;47.744;10.580;2022-08-27T03:11:20;22.73;;;5.60;;
4278;SDS011;2153;47.744;10.580;2022-08-27T03:13:47;17.10;;;5.63;;
4278;SDS011;2153;47.744;10.580;2022-08-27T03:16:14;15.30;;;5.10;;
4278;SDS011;2153;47.744;10.580;2022-08-27T03:18:41;15.50;;;5.07;;
4278;SDS011;2153;47.744;10.580;2022-08-27T03:21:07;16.00;;;5.47;;
4278;SDS011;2153;47.744;10.580;2022-08-27T03:23:34;17.17;;;5.40;;
4278;SDS011;2153;47.744;10.580;2022-08-27T03:26:03;19.63;;;6.30;;
4278;SDS011;2153;47.744;10.580;2022-08-27T03:28:35;19.10;;;5.93;;
4278;SDS011;2153;47.744;10.580;2022-08-27T03:31:03;16.33;;;5.50;;
4278;SDS011;2153;47.744;10.580;2022-08-27T03:33:32;16.37;;;5.47;;
4278;SDS011;2153;47.744;10.580;2022-08-27T03:36:01;17.10;;;6.23;;
4278;SDS011;2153;47.744;10.580;2022-08-27T03:38:28;21.03;;;5.83;;
4278;SDS011;2153;47.744;10.580;2022-08-27T03:40:55;20.00;;;6.57;;
4278;SDS011;2153;47.744;10.580;2022-08-27T03:43:23;17.20;;;5.93;;
4278;SDS011;2153;47.744;10.580;2022-08-27T03:45:51;15.63;;;5.33;;
4278;SDS011;2153;47.744;10.580;2022-08-27T03:48:18;18.50;;;5.73;;
4278;SDS011;2153;47.744;10.580;2022-08-27T03:50:45;15.90;;;5.17;;
4278;SDS011;2153;47.744;10.580;2022-08-27T03:53:14;18.00;;;5.67;;
4278;SDS011;2153;47.744;10.580;2022-08-27T03:55:43;18.90;;;6.17;;
4278;SDS011;2153;47.744;10.580;2022-08-27T03:58:10;16.90;;;6.17;;
4278;SDS011;2153;47.744;10.580;2022-08-27T04:00:39;15.30;;;4.87;;
4278;SDS011;2153;47.744;10.580;2022-08-27T04:03:06;16.30;;;5.47;;
4278;SDS011;2153;47.744;10.580;2022-08-27T04:05:33;16.90;;;6.30;;
4278;SDS011;2153;47.744;10.580;2022-08-27T04:08:01;14.63;;;4.33;;
4278;SDS011;2153;47.744;10.580;2022-08-27T04:10:29;16.63;;;5.90;;
4278;SDS011;2153;47.744;10.580;2022-08-27T04:12:55;17.03;;;5.67;;
4278;SDS011;2153;47.744;10.580;2022-08-27T04:15:22;17.80;;;5.50;;
4278;SDS011;2153;47.744;10.580;2022-08-27T04:17:50;22.60;;;6.03;;
4278;SDS011;2153;47.744;10.580;2022-08-27T04:20:17;15.07;;;5.40;;
4278;SDS011;2153;47.744;10.580;2022-08-27T04:22:44;15.67;;;5.30;;
4278;SDS011;2153;47.744;10.580;2022-08-27T04:25:10;16.60;;;5.97;;
4278;SDS011;2153;47.744;10.580;2022-08-27T04:27:37;18.33;;;6.40;;
4278;SDS011;2153;47.744;10.580;2022-08-27T04:30:04;23.30;;;6.40;;
4278;SDS011;2153;47.744;10.580;2022-08-27T04:32:33;17.20;;;6.67;;
4278;SDS011;2153;47.744;10.580;2022-08-27T04:35:02;15.90;;;5.77;;
4278;SDS011;2153;47.744;10.580;2022-08-27T04:37:29;19.43;;;6.90;;
4278;SDS011;2153;47.744;10.580;2022-08-27T04:39:58;16.70;;;6.20;;
4278;SDS011;2153;47.744;10.580;2022-08-27T04:42:25;16.90;;;6.03;;
4278;SDS011;2153;47.744;10.580;2022-08-27T04:44:51;19.47;;;5.70;;
4278;SDS011;2153;47.744;10.580;2022-08-27T04:47:18;24.13;;;7.27;;
4278;SDS011;2153;47.744;10.580;2022-08-27T04:49:45;22.83;;;6.30;;
4278;SDS011;2153;47.744;10.580;2022-08-27T04:52:13;18.50;;;7.20;;
4278;SDS011;2153;47.744;10.580;2022-08-27T04:54:41;19.50;;;6.43;;
4278;SDS011;2153;47.744;10.580;2022-08-27T04:57:07;20.60;;;6.07;;
4278;SDS011;2153;47.744;10.580;2022-08-27T04:59:34;19.53;;;6.67;;
4278;SDS011;2153;47.744;10.580;2022-08-27T05:02:03;20.20;;;6.60;;
4278;SDS011;2153;47.744;10.580;2022-08-27T05:04:33;18.37;;;6.00;;
4278;SDS011;2153;47.744;10.580;2022-08-27T05:07:01;18.57;;;6.07;;
4278;SDS011;2153;47.744;10.580;2022-08-27T05:09:29;17.07;;;5.83;;
4278;SDS011;2153;47.744;10.580;2022-08-27T05:11:55;17.63;;;5.60;;
4278;SDS011;2153;47.744;10.580;2022-08-27T05:14:22;18.87;;;6.03;;
4278;SDS011;2153;47.744;10.580;2022-08-27T05:16:53;17.80;;;6.73;;
4278;SDS011;2153;47.744;10.580;2022-08-27T05:19:20;17.90;;;6.30;;
4278;SDS011;2153;47.744;10.580;2022-08-27T05:21:48;17.20;;;6.57;;
4278;SDS011;2153;47.744;10.580;2022-08-27T05:24:15;16.93;;;6.47;;
4278;SDS011;2153;47.744;10.580;2022-08-27T05:26:44;16.27;;;5.90;;
4278;SDS011;2153;47.744;10.580;2022-08-27T05:29:11;16.57;;;6.70;;
4278;SDS011;2153;47.744;10.580;2022-08-27T05:31:38;20.13;;;6.30;;
4278;SDS011;2153;47.744;10.580;2022-08-27T05:34:05;17.00;;;6.67;;
4278;SDS011;2153;47.744;10.580;2022-08-27T05:36:32;17.17;;;5.90;;
4278;SDS011;2153;47.744;10.580;2022-08-27T05:39:01;16.00;;;6.10;;
4278;SDS011;2153;47.744;10.580;2022-08-27T05:41:30;17.13;;;6.63;;
4278;SDS011;2153;47.744;10.580;2022-08-27T05:43:59;16.40;;;5.90;;
4278;SDS011;2153;47.744;10.580;2022-08-27T05:46:27;19.60;;;6.60;;
4278;SDS011;2153;47.744;10.580;2022-08-27T05:48:55;17.07;;;6.00;;
4278;SDS011;2153;47.744;10.580;2022-08-27T05:51:24;19.10;;;6.93;;
4278;SDS011;2153;47.744;10.580;2022-08-27T05:53:53;16.60;;;6.30;;
4278;SDS011;2153;47.744;10.580;2022-08-27T05:56:22;22.33;;;7.20;;
4278;SDS011;2153;47.744;10.580;2022-08-27T05:58:50;16.87;;;6.37;;
4278;SDS011;2153;47.744;10.580;2022-08-27T06:01:36;16.53;;;5.40;;
4278;SDS011;2153;47.744;10.580;2022-08-27T06:04:05;20.40;;;6.30;;
4278;SDS011;2153;47.744;10.580;2022-08-27T06:06:32;17.90;;;6.13;;
4278;SDS011;2153;47.744;10.580;2022-08-27T06:09:00;17.93;;;6.50;;
4278;SDS011;2153;47.744;10.580;2022-08-27T06:11:27;17.10;;;6.50;;
4278;SDS011;2153;47.744;10.580;2022-08-27T06:13:54;16.67;;;5.60;;
4278;SDS011;2153;47.744;10.580;2022-08-27T06:16:21;17.83;;;5.77;;
4278;SDS011;2153;47.744;10.580;2022-08-27T06:18:49;20.63;;;6.13;;
4278;SDS011;2153;47.744;10.580;2022-08-27T06:21:16;19.00;;;6.70;;
4278;SDS011;2153;47.744;10.580;2022-08-27T06:23:44;18.50;;;6.90;;
4278;SDS011;2153;47.744;10.580;2022-08-27T06:26:14;17.00;;;6.57;;
4278;SDS011;2153;47.744;10.580;2022-08-27T06:28:42;17.07;;;6.43;;
4278;SDS011;2153;47.744;10.580;2022-08-27T06:31:09;17.23;;;6.70;;
4278;SDS011;2153;47.744;10.580;2022-08-27T06:33:38;18.00;;;6.97;;
4278;SDS011;2153;47.744;10.580;2022-08-27T06:36:08;16.57;;;6.60;;
4278;SDS011;2153;47.744;10.580;2022-08-27T06:38:36;18.90;;;7.07;;
4278;SDS011;2153;47.744;10.580;2022-08-27T06:41:04;21.10;;;6.60;;
4278;SDS011;2153;47.744;10.580;2022-08-27T06:43:33;17.00;;;6.70;;
4278;SDS011;2153;47.744;10.580;2022-08-27T06:46:01;17.47;;;6.20;;
4278;SDS011;2153;47.744;10.580;2022-08-27T06:48:28;22.87;;;7.00;;
4278;SDS011;2153;47.744;10.580;2022-08-27T06:50:55;19.10;;;6.60;;
4278;SDS011;2153;47.744;10.580;2022-08-27T06:53:23;17.10;;;6.90;;
4278;SDS011;2153;47.744;10.580;2022-08-27T06:55:50;16.53;;;6.03;;
4278;SDS011;2153;47.744;10.580;2022-08-27T06:58:17;16.93;;;6.00;;
4278;SDS011;2153;47.744;10.580;2022-08-27T07:00:44;20.83;;;5.60;;
4278;SDS011;2153;47.744;10.580;2022-08-27T07:03:11;16.93;;;5.73;;
4278;SDS011;2153;47.744;10.580;2022-08-27T07:05:38;18.87;;;6.27;;
4278;SDS011;2153;47.744;10.580;2022-08-27T07:08:06;16.10;;;5.60;;
4278;SDS011;2153;47.744;10.580;2022-08-27T07:10:34;18.77;;;6.87;;
4278;SDS011;2153;47.744;10.580;2022-08-27T07:13:02;20.50;;;6.70;;
4278;SDS011;2153;47.744;10.580;2022-08-27T07:15:30;18.13;;;5.37;;
4278;SDS011;2153;47.744;10.580;2022-08-27T07:17:57;15.80;;;6.00;;
4278;SDS011;2153;47.744;10.580;2022-08-27T07:20:23;17.93;;;6.00;;
4278;SDS011;2153;47.744;10.580;2022-08-27T07:22:50;16.50;;;6.00;;
4278;SDS011;2153;47.744;10.580;2022-08-27T07:25:18;17.33;;;6.70;;
4278;SDS011;2153;47.744;10.580;2022-08-27T07:27:46;18.80;;;6.63;;
4278;SDS011;2153;47.744;10.580;2022-08-27T07:30:14;17.00;;;5.30;;
4278;SDS011;2153;47.744;10.580;2022-08-27T07:32:42;16.47;;;5.80;;
4278;SDS011;2153;47.744;10.580;2022-08-27T07:35:09;15.43;;;5.70;;
4278;SDS011;2153;47.744;10.580;2022-08-27T07:37:36;16.10;;;5.33;;
4278;SDS011;2153;47.744;10.580;2022-08-27T07:40:04;16.77;;;5.30;;
4278;SDS011;2153;47.744;10.580;2022-08-27T07:42:33;16.30;;;5.83;;
4278;SDS011;2153;47.744;10.580;2022-08-27T07:45:18;20.63;;;6.07;;
4278;SDS011;2153;47.744;10.580;2022-08-27T07:47:45;16.80;;;5.90;;
4278;SDS011;2153;47.744;10.580;2022-08-27T07:50:12;19.30;;;6.10;;
4278;SDS011;2153;47.744;10.580;2022-08-27T07:52:39;15.17;;;5.03;;
4278;SDS011;2153;47.744;10.580;2022-08-27T07:55:08;16.27;;;5.87;;
4278;SDS011;2153;47.744;10.580;2022-08-27T07:57:35;19.13;;;5.93;;
4278;SDS011;2153;47.744;10.580;2022-08-27T08:00:02;16.03;;;5.90;;
4278;SDS011;2153;47.744;10.580;2022-08-27T08:02:31;16.17;;;5.80;;
4278;SDS011;2153;47.744;10.580;2022-08-27T08:04:59;22.90;;;7.47;;
4278;SDS011;2153;47.744;10.580;2022-08-27T08:07:25;17.47;;;6.37;;
4278;SDS011;2153;47.744;10.580;2022-08-27T08:09:53;17.77;;;7.23;;
4278;SDS011;2153;47.744;10.580;2022-08-27T08:12:19;19.30;;;6.50;;
4278;SDS011;2153;47.744;10.580;2022-08-27T08:14:46;20.17;;;6.90;;
4278;SDS011;2153;47.744;10.580;2022-08-27T08:17:13;17.90;;;6.40;;
4278;SDS011;2153;47.744;10.580;2022-08-27T08:19:41;17.57;;;6.77;;
4278;SDS011;2153;47.744;10.580;2022-08-27T08:22:08;18.00;;;6.30;;
4278;SDS011;2153;47.744;10.580;2022-08-27T08:24:35;17.13;;;6.47;;
4278;SDS011;2153;47.744;10.580;2022-08-27T08:27:01;19.83;;;7.43;;
4278;SDS011;2153;47.744;10.580;2022-08-27T08:29:28;17.40;;;6.03;;
4278;SDS011;2153;47.744;10.580;2022-08-27T08:31:55;17.03;;;6.37;;
4278;SDS011;2153;47.744;10.580;2022-08-27T08:34:21;18.73;;;7.30;;
4278;SDS011;2153;47.744;10.580;2022-08-27T08:36:49;18.60;;;7.10;;
4278;SDS011;2153;47.744;10.580;2022-08-27T08:39:17;19.10;;;7.07;;
4278;SDS011;2153;47.744;10.580;2022-08-27T08:41:47;16.23;;;6.33;;
4278;SDS011;2153;47.744;10.580;2022-08-27T08:44:18;18.40;;;7.20;;
4278;SDS011;2153;47.744;10.580;2022-08-27T08:46:55;20.63;;;7.37;;
4278;SDS011;2153;47.744;10.580;2022-08-27T08:49:29;16.10;;;6.40;;
4278;SDS011;2153;47.744;10.580;2022-08-27T08:52:05;17.90;;;7.73;;
4278;SDS011;2153;47.744;10.580;2022-08-27T08:54:38;22.87;;;6.63;;
4278;SDS011;2153;47.744;10.580;2022-08-27T08:57:05;17.90;;;6.63;;
4278;SDS011;2153;47.744;10.580;2022-08-27T08:59:41;18.50;;;7.00;;
4278;SDS011;2153;47.744;10.580;2022-08-27T09:02:15;19.30;;;6.33;;
4278;SDS011;2153;47.744;10.580;2022-08-27T09:04:42;18.77;;;7.10;;
4278;SDS011;2153;47.744;10.580;2022-08-27T09:07:12;19.07;;;7.10;;
4278;SDS011;2153;47.744;10.580;2022-08-27T09:09:45;17.97;;;6.87;;
4278;SDS011;2153;47.744;10.580;2022-08-27T09:12:17;17.87;;;7.40;;
4278;SDS011;2153;47.744;10.580;2022-08-27T09:14:50;19.23;;;6.77;;
4278;SDS011;2153;47.744;10.580;2022-08-27T09:17:20;19.87;;;7.57;;
4278;SDS011;2153;47.744;10.580;2022-08-27T09:19:47;17.77;;;6.63;;
4278;SDS011;2153;47.744;10.580;2022-08-27T09:22:17;17.87;;;7.17;;
4278;SDS011;2153;47.744;10.580;2022-08-27T09:24:55;18.60;;;7.10;;
4278;SDS011;2153;47.744;10.580;2022-08-27T09:27:32;19.70;;;7.83;;
4278;SDS011;2153;47.744;10.580;2022-08-27T09:30:04;19.77;;;8.00;;
4278;SDS011;2153;47.744;10.580;2022-08-27T09:32:33;20.43;;;8.03;;
4278;SDS011;2153;47.744;10.580;2022-08-27T09:35:01;20.60;;;7.93;;
4278;SDS011;2153;47.744;10.580;2022-08-27T09:37:32;22.30;;;8.80;;
4278;SDS011;2153;47.744;10.580;2022-08-27T09:40:05;18.47;;;7.43;;
4278;SDS011;2153;47.744;10.580;2022-08-27T09:42:40;19.83;;;7.83;;
4278;SDS011;2153;47.744;10.580;2022-08-27T09:45:10;19.53;;;7.60;;
4278;SDS011;2153;47.744;10.580;2022-08-27T09:47:42;18.97;;;8.70;;
4278;SDS011;2153;47.744;10.580;2022-08-27T09:50:11;18.07;;;7.87;;
4278;SDS011;2153;47.744;10.580;2022-08-27T09:52:46;19.87;;;7.90;;
4278;SDS011;2153;47.744;10.580;2022-08-27T09:55:26;21.90;;;8.10;;
4278;SDS011;2153;47.744;10.580;2022-08-27T09:57:56;17.60;;;6.87;;
4278;SDS011;2153;47.744;10.580;2022-08-27T10:00:27;18.10;;;7.90;;
4278;SDS011;2153;47.744;10.580;2022-08-27T10:02:58;21.10;;;8.40;;
4278;SDS011;2153;47.744;10.580;2022-08-27T10:05:28;16.80;;;7.47;;
4278;SDS011;2153;47.744;10.580;2022-08-27T10:07:59;20.23;;;8.33;;
4278;SDS011;2153;47.744;10.580;2022-08-27T10:10:34;18.93;;;6.93;;
4278;SDS011;2153;47.744;10.580;2022-08-27T10:13:06;19.83;;;8.13;;
4278;SDS011;2153;47.744;10.580;2022-08-27T10:15:40;18.93;;;7.40;;
4278;SDS011;2153;47.744;10.580;2022-08-27T10:18:16;17.23;;;6.83;;
4278;SDS011;2153;47.744;10.580;2022-08-27T10:20:51;19.67;;;6.80;;
4278;SDS011;2153;47.744;10.580;2022-08-27T10:23:31;17.10;;;6.70;;
4278;SDS011;2153;47.744;10.580;2022-08-27T10:26:03;18.73;;;7.03;;
4278;SDS011;2153;47.744;10.580;2022-08-27T10:28:38;19.47;;;7.67;;
4278;SDS011;2153;47.744;10.580;2022-08-27T10:31:18;17.00;;;6.57;;
4278;SDS011;2153;47.744;10.580;2022-08-27T10:33:54;21.50;;;6.70;;
4278;SDS011;2153;47.744;10.580;2022-08-27T10:36:32;18.50;;;7.40;;
4278;SDS011;2153;47.744;10.580;2022-08-27T10:39:06;16.50;;;6.73;;
4278;SDS011;2153;47.744;10.580;2022-08-27T10:41:41;18.57;;;7.50;;
4278;SDS011;2153;47.744;10.580;2022-08-27T10:44:20;17.90;;;6.80;;
4278;SDS011;2153;47.744;10.580;2022-08-27T10:47:10;18.53;;;7.03;;
4278;SDS011;2153;47.744;10.580;2022-08-27T10:49:49;18.43;;;6.43;;
4278;SDS011;2153;47.744;10.580;2022-08-27T10:52:24;15.10;;;4.77;;
4278;SDS011;2153;47.744;10.580;2022-08-27T10:54:57;18.57;;;6.30;;
4278;SDS011;2153;47.744;10.580;2022-08-27T10:57:31;23.43;;;6.83;;
4278;SDS011;2153;47.744;10.580;2022-08-27T11:00:10;20.13;;;6.47;;
4278;SDS011;2153;47.744;10.580;2022-08-27T11:02:41;18.63;;;6.20;;
4278;SDS011;2153;47.744;10.580;2022-08-27T11:05:15;15.83;;;5.40;;
4278;SDS011;2153;47.744;10.580;2022-08-27T11:07:45;16.63;;;6.23;;
4278;SDS011;2153;47.744;10.580;2022-08-27T11:10:18;15.43;;;6.40;;
4278;SDS011;2153;47.744;10.580;2022-08-27T11:12:50;16.73;;;7.20;;
4278;SDS011;2153;47.744;10.580;2022-08-27T11:15:22;17.10;;;6.63;;
4278;SDS011;2153;47.744;10.580;2022-08-27T11:17:53;17.07;;;6.83;;
4278;SDS011;2153;47.744;10.580;2022-08-27T11:20:26;17.87;;;6.30;;
4278;SDS011;2153;47.744;10.580;2022-08-27T11:22:57;17.50;;;6.97;;
4278;SDS011;2153;47.744;10.580;2022-08-27T11:25:39;17.47;;;6.60;;
4278;SDS011;2153;47.744;10.580;2022-08-27T11:28:14;17.67;;;7.20;;
4278;SDS011;2153;47.744;10.580;2022-08-27T11:30:54;17.03;;;6.93;;
4278;SDS011;2153;47.744;10.580;2022-08-27T11:33:29;21.60;;;6.87;;
4278;SDS011;2153;47.744;10.580;2022-08-27T11:38:58;18.23;;;7.50;;
4278;SDS011;2153;47.744;10.580;2022-08-27T11:44:20;23.13;;;7.30;;
4278;SDS011;2153;47.744;10.580;2022-08-27T11:46:50;17.07;;;6.30;;
4278;SDS011;2153;47.744;10.580;2022-08-27T11:49:26;18.73;;;7.33;;
4278;SDS011;2153;47.744;10.580;2022-08-27T11:51:59;17.90;;;6.13;;
4278;SDS011;2153;47.744;10.580;2022-08-27T11:54:29;18.17;;;6.23;;
4278;SDS011;2153;47.744;10.580;2022-08-27T11:56:58;17.37;;;5.90;;
4278;SDS011;2153;47.744;10.580;2022-08-27T11:59:28;16.80;;;5.60;;
4278;SDS011;2153;47.744;10.580;2022-08-27T12:01:57;17.70;;;6.13;;
4278;SDS011;2153;47.744;10.580;2022-08-27T12:04:37;19.53;;;6.70;;
4278;SDS011;2153;47.744;10.580;2022-08-27T12:07:06;16.60;;;6.90;;
4278;SDS011;2153;47.744;10.580;2022-08-27T12:09:55;24.77;;;7.50;;
4278;SDS011;2153;47.744;10.580;2022-08-27T12:12:47;19.67;;;8.63;;
4278;SDS011;2153;47.744;10.580;2022-08-27T12:15:36;18.60;;;8.20;;
4278;SDS011;2153;47.744;10.580;2022-08-27T12:18:33;22.23;;;8.20;;
4278;SDS011;2153;47.744;10.580;2022-08-27T12:21:10;19.03;;;8.60;;
4278;SDS011;2153;47.744;10.580;2022-08-27T12:23:44;21.47;;;8.17;;
4278;SDS011;2153;47.744;10.580;2022-08-27T12:26:28;17.67;;;7.87;;
4278;SDS011;2153;47.744;10.580;2022-08-27T12:32:03;18.20;;;7.70;;
4278;SDS011;2153;47.744;10.580;2022-08-27T12:34:43;19.37;;;7.53;;
4278;SDS011;2153;47.744;10.580;2022-08-27T12:37:14;19.67;;;7.40;;
4278;SDS011;2153;47.744;10.580;2022-08-27T12:39:46;20.10;;;7.93;;
4278;SDS011;2153;47.744;10.580;2022-08-27T12:42:14;23.07;;;8.00;;
4278;SDS011;2153;47.744;10.580;2022-08-27T12:44:43;17.97;;;7.90;;
4278;SDS011;2153;47.744;10.580;2022-08-27T12:47:11;18.23;;;8.10;;
4278;SDS011;2153;47.744;10.580;2022-08-27T12:49:43;18.60;;;8.20;;
4278;SDS011;2153;47.744;10.580;2022-08-27T12:52:17;18.83;;;8.23;;
4278;SDS011;2153;47.744;10.580;2022-08-27T12:54:57;17.00;;;7.57;;
4278;SDS011;2153;47.744;10.580;2022-08-27T12:57:34;18.90;;;7.30;;
4278;SDS011;2153;47.744;10.580;2022-08-27T13:00:11;20.57;;;8.40;;
4278;SDS011;2153;47.744;10.580;2022-08-27T13:02:51;22.40;;;8.90;;
4278;SDS011;2153;47.744;10.580;2022-08-27T13:05:41;18.40;;;7.30;;
4278;SDS011;2153;47.744;10.580;2022-08-27T13:08:16;17.17;;;7.30;;
4278;SDS011;2153;47.744;10.580;2022-08-27T13:10:45;20.23;;;8.30;;
4278;SDS011;2153;47.744;10.580;2022-08-27T13:13:13;22.00;;;7.87;;
4278;SDS011;2153;47.744;10.580;2022-08-27T13:15:42;18.10;;;7.70;;
4278;SDS011;2153;47.744;10.580;2022-08-27T13:18:11;18.00;;;6.73;;
4278;SDS011;2153;47.744;10.580;2022-08-27T13:20:39;17.63;;;7.40;;
4278;SDS011;2153;47.744;10.580;2022-08-27T13:23:06;18.43;;;7.33;;
4278;SDS011;2153;47.744;10.580;2022-08-27T13:25:38;21.27;;;8.50;;
4278;SDS011;2153;47.744;10.580;2022-08-27T13:28:07;18.43;;;8.40;;
4278;SDS011;2153;47.744;10.580;2022-08-27T13:30:36;19.53;;;7.43;;
4278;SDS011;2153;47.744;10.580;2022-08-27T13:33:06;17.77;;;5.70;;
4278;SDS011;2153;47.744;10.580;2022-08-27T13:35:39;19.10;;;7.20;;
4278;SDS011;2153;47.744;10.580;2022-08-27T13:38:07;23.80;;;7.40;;
4278;SDS011;2153;47.744;10.580;2022-08-27T13:40:35;21.73;;;7.07;;
4278;SDS011;2153;47.744;10.580;2022-08-27T13:43:04;20.00;;;7.60;;
4278;SDS011;2153;47.744;10.580;2022-08-27T13:45:34;17.83;;;7.30;;
4278;SDS011;2153;47.744;10.580;2022-08-27T13:48:02;18.30;;;7.20;;
4278;SDS011;2153;47.744;10.580;2022-08-27T13:50:31;19.20;;;8.10;;
4278;SDS011;2153;47.744;10.580;2022-08-27T13:53:03;21.30;;;8.70;;
4278;SDS011;2153;47.744;10.580;2022-08-27T13:55:48;17.57;;;6.80;;
4278;SDS011;2153;47.744;10.580;2022-08-27T13:58:18;22.50;;;7.17;;
4278;SDS011;2153;47.744;10.580;2022-08-27T14:00:48;19.13;;;7.67;;
4278;SDS011;2153;47.744;10.580;2022-08-27T14:03:28;21.23;;;7.70;;
4278;SDS011;2153;47.744;10.580;2022-08-27T14:05:57;20.00;;;7.60;;
4278;SDS011;2153;47.744;10.580;2022-08-27T14:08:28;18.20;;;7.20;;
4278;SDS011;2153;47.744;10.580;2022-08-27T14:10:58;17.60;;;7.43;;
4278;SDS011;2153;47.744;10.580;2022-08-27T14:13:27;25.23;;;8.17;;
4278;SDS011;2153;47.744;10.580;2022-08-27T14:16:10;19.27;;;7.60;;
4278;SDS011;2153;47.744;10.580;2022-08-27T14:18:48;19.60;;;7.90;;
4278;SDS011;2153;47.744;10.580;2022-08-27T14:21:16;20.43;;;8.20;;
4278;SDS011;2153;47.744;10.580;2022-08-27T14:23:44;22.43;;;8.67;;
4278;SDS011;2153;47.744;10.580;2022-08-27T14:26:11;25.93;;;8.03;;
4278;SDS011;2153;47.744;10.580;2022-08-27T14:28:39;28.40;;;8.40;;
4278;SDS011;2153;47.744;10.580;2022-08-27T14:31:06;24.83;;;8.60;;
4278;SDS011;2153;47.744;10.580;2022-08-27T14:33:33;23.50;;;8.57;;
4278;SDS011;2153;47.744;10.580;2022-08-27T14:35:59;27.83;;;10.53;;
4278;SDS011;2153;47.744;10.580;2022-08-27T14:38:26;23.83;;;10.70;;
4278;SDS011;2153;47.744;10.580;2022-08-27T14:40:59;27.43;;;12.00;;
4278;SDS011;2153;47.744;10.580;2022-08-27T14:43:25;22.87;;;12.30;;
4278;SDS011;2153;47.744;10.580;2022-08-27T14:45:52;25.60;;;12.40;;
4278;SDS011;2153;47.744;10.580;2022-08-27T14:48:21;27.23;;;12.87;;
4278;SDS011;2153;47.744;10.580;2022-08-27T14:50:51;28.40;;;13.23;;
4278;SDS011;2153;47.744;10.580;2022-08-27T14:53:18;28.17;;;13.97;;
4278;SDS011;2153;47.744;10.580;2022-08-27T14:55:45;31.57;;;14.43;;
4278;SDS011;2153;47.744;10.580;2022-08-27T14:58:13;32.33;;;13.90;;
4278;SDS011;2153;47.744;10.580;2022-08-27T15:00:40;27.07;;;14.60;;
4278;SDS011;2153;47.744;10.580;2022-08-27T15:03:08;29.07;;;14.50;;
4278;SDS011;2153;47.744;10.580;2022-08-27T15:05:35;30.23;;;14.00;;
4278;SDS011;2153;47.744;10.580;2022-08-27T15:08:02;32.97;;;15.50;;
4278;SDS011;2153;47.744;10.580;2022-08-27T15:10:29;31.67;;;15.73;;
4278;SDS011;2153;47.744;10.580;2022-08-27T15:12:56;28.40;;;14.23;;